Time;durP1;ratioP1;P1;durP2;ratioP2;P2;SDS_P1;SDS_P2;PMS_P1;PMS_P2;Temp;Humidity;BMP_temperature;BMP_pressure;BME280_temperature;BME280_humidity;BME280_pressure;Samples;Min_cycle;Max_cycle;Signal;HPM_P1;HPM_P2
2021/10/13 00:00:13;;;;;;;8.43;5.67;;;6.20;1.00;7.60;100936.00;;;;5048241;28;20467;-75
2021/10/13 00:02:41;;;;;;;10.07;6.03;;;6.20;1.00;7.40;100942.00;;;;5046637;28;20463;-75
2021/10/13 00:05:11;;;;;;;7.83;6.20;;;6.20;1.00;7.60;100911.00;;;;5046616;28;20869;-78
2021/10/13 00:07:39;;;;;;;10.40;5.70;;;6.20;1.00;7.60;100943.00;;;;5048339;28;20555;-76
2021/10/13 00:10:08;;;;;;;7.80;5.13;;;6.30;1.00;7.60;100951.00;;;;5044297;28;20462;-75
2021/10/13 00:12:37;;;;;;;7.73;5.30;;;6.20;1.00;7.60;100949.00;;;;5044807;28;20461;-76
2021/10/13 00:15:11;;;;;;;8.70;5.80;;;6.20;1.00;7.60;100957.00;;;;5044787;28;20998;-75
2021/10/13 00:17:40;;;;;;;10.17;5.60;;;6.30;1.00;7.60;100916.00;;;;5044006;28;20487;-75
2021/10/13 00:20:09;;;;;;;7.60;5.80;;;6.20;1.00;7.60;100930.00;;;;5045187;28;20460;-76
2021/10/13 00:22:38;;;;;;;8.23;5.40;;;6.30;1.00;7.60;100964.00;;;;5046454;28;20460;-75
2021/10/13 00:25:07;;;;;;;7.33;5.40;;;6.20;1.00;7.60;100964.00;;;;5044407;28;20489;-76
2021/10/13 00:27:35;;;;;;;8.57;5.67;;;6.20;1.00;7.60;100972.00;;;;5045025;28;20475;-80
2021/10/13 00:30:06;;;;;;;10.10;5.50;;;6.10;1.00;7.60;100958.00;;;;5045237;28;21008;-77
2021/10/13 00:32:34;;;;;;;8.60;5.23;;;6.10;1.00;7.60;100982.00;;;;5045166;28;20464;-80
2021/10/13 00:35:03;;;;;;;6.40;5.50;;;6.00;1.00;7.50;100972.00;;;;5044207;28;20455;-78
2021/10/13 00:37:31;;;;;;;11.30;6.10;;;6.10;1.00;7.50;100973.00;;;;5048347;28;20475;-77
2021/10/13 00:40:00;;;;;;;10.50;5.87;;;6.10;1.00;7.50;100981.00;;;;5047762;28;20471;-76
2021/10/13 00:42:28;;;;;;;12.57;6.57;;;6.20;1.00;7.50;100977.00;;;;5037758;28;20470;-80
2021/10/13 00:44:56;;;;;;;10.07;6.40;;;6.10;1.00;7.50;100984.00;;;;5045516;28;20457;-78
2021/10/13 00:47:26;;;;;;;7.33;6.33;;;6.10;1.00;7.50;100985.00;;;;5044391;28;20468;-77
2021/10/13 00:49:54;;;;;;;11.17;7.63;;;6.10;1.00;7.50;100996.00;;;;5037202;28;20452;-77
2021/10/13 00:52:23;;;;;;;14.87;7.93;;;6.20;1.00;7.50;100995.00;;;;5045996;28;20456;-77
2021/10/13 00:54:51;;;;;;;10.67;7.57;;;6.30;1.00;7.50;100999.00;;;;5044324;28;21042;-77
2021/10/13 00:57:19;;;;;;;11.40;7.83;;;6.10;1.00;7.50;101005.00;;;;5044036;28;20483;-77
2021/10/13 00:59:48;;;;;;;9.47;7.40;;;6.20;1.00;7.50;101003.00;;;;5062190;28;20459;-77
2021/10/13 01:02:28;;;;;;;10.60;7.27;;;6.20;1.00;7.50;101013.00;;;;5044546;28;20821;-77
2021/10/13 01:05:24;;;;;;;9.30;7.10;;;6.20;1.00;7.60;101026.00;;;;5044807;28;20807;-77
2021/10/13 01:08:14;;;;;;;9.13;6.97;;;6.10;1.00;7.60;101016.00;;;;5060164;28;20480;-76
2021/10/13 01:10:54;;;;;;;9.37;7.23;;;6.10;1.00;7.60;101012.00;;;;5045402;28;20967;-76
2021/10/13 01:13:32;;;;;;;11.43;7.67;;;6.30;1.00;7.70;101005.00;;;;5043510;28;20456;-76
2021/10/13 01:16:12;;;;;;;10.50;7.43;;;6.30;1.00;7.90;101033.00;;;;5043063;28;20841;-77
2021/10/13 01:18:51;;;;;;;11.80;7.77;;;6.30;1.00;7.70;101027.00;;;;5042424;28;20503;-77
2021/10/13 01:21:40;;;;;;;13.37;7.77;;;6.40;1.00;8.10;101036.00;;;;5043466;28;20456;-77
2021/10/13 01:24:28;;;;;;;11.00;7.33;;;6.40;1.00;8.10;101030.00;;;;5043866;28;20546;-76
2021/10/13 01:27:23;;;;;;;9.20;6.80;;;6.50;1.00;8.20;101011.00;;;;5044431;28;20549;-76
2021/10/13 01:29:54;;;;;;;9.70;6.77;;;6.60;1.00;8.30;101040.00;;;;5045308;28;21526;-76
2021/10/13 01:32:27;;;;;;;10.90;6.80;;;6.60;1.00;8.40;101042.00;;;;5043363;28;20448;-76
2021/10/13 01:34:59;;;;;;;10.90;7.27;;;6.80;1.00;8.40;101041.00;;;;5043341;28;20452;-76
2021/10/13 01:37:32;;;;;;;9.80;7.90;;;6.80;1.00;8.50;100998.00;;;;5043363;28;20472;-76
2021/10/13 01:40:02;;;;;;;7.87;6.37;;;6.80;1.00;8.50;101036.00;;;;5043995;28;20522;-76
2021/10/13 01:42:32;;;;;;;11.40;8.20;;;7.00;1.00;8.60;101031.00;;;;5041780;28;20463;-76
2021/10/13 01:45:03;;;;;;;10.00;7.33;;;7.00;1.00;8.60;101053.00;;;;5042018;28;21146;-75
2021/10/13 01:47:33;;;;;;;8.60;6.70;;;7.00;1.00;8.70;100877.00;;;;5043176;28;20483;-76
2021/10/13 01:50:03;;;;;;;11.23;8.00;;;7.10;1.00;8.70;101039.00;;;;5044365;28;20449;-76
2021/10/13 01:52:33;;;;;;;8.20;6.73;;;7.10;1.00;8.70;100988.00;;;;5045504;28;20796;-75
2021/10/13 01:55:04;;;;;;;13.90;7.80;;;7.10;1.00;8.70;101053.00;;;;5047724;28;20459;-76
2021/10/13 01:57:34;;;;;;;11.00;6.97;;;7.10;1.00;8.60;101043.00;;;;5048595;28;20483;-77
2021/10/13 02:00:08;;;;;;;9.40;7.03;;;7.10;1.00;8.70;101051.00;;;;5046745;28;20463;-76
2021/10/13 02:02:38;;;;;;;9.87;6.93;;;7.10;1.00;8.70;101050.00;;;;5049977;28;20458;-78
2021/10/13 02:05:09;;;;;;;8.00;6.80;;;7.20;1.00;8.80;101050.00;;;;5049433;28;20455;-76
2021/10/13 02:07:40;;;;;;;10.20;7.43;;;7.20;1.00;8.80;101042.00;;;;5053550;28;20484;-76
2021/10/13 02:10:15;;;;;;;10.03;7.47;;;7.20;1.00;8.90;101047.00;;;;5052863;28;20520;-77
2021/10/13 02:12:47;;;;;;;11.00;7.10;;;7.30;1.00;8.90;101032.00;;;;5051188;28;20511;-78
2021/10/13 02:15:18;;;;;;;13.40;6.30;;;7.30;1.00;8.80;101044.00;;;;5047122;28;20467;-75
2021/10/13 02:17:51;;;;;;;11.43;6.37;;;7.30;1.00;8.90;100907.00;;;;5052192;28;20521;-74
2021/10/13 02:20:20;;;;;;;10.63;7.90;;;7.30;1.00;8.90;101046.00;;;;5051500;28;20475;-74
2021/10/13 02:22:53;;;;;;;9.43;6.90;;;7.30;1.00;8.90;101042.00;;;;5051384;28;20455;-78
2021/10/13 02:25:22;;;;;;;8.37;6.87;;;7.30;1.00;8.90;101032.00;;;;5046595;28;20495;-77
2021/10/13 02:28:01;;;;;;;7.80;6.63;;;7.40;1.00;9.00;101043.00;;;;5046505;28;20497;-75
2021/10/13 02:30:30;;;;;;;11.10;7.53;;;7.40;1.00;9.00;101057.00;;;;5047327;28;20455;-75
2021/10/13 02:33:00;;;;;;;9.17;6.80;;;7.40;1.00;9.00;101022.00;;;;5050453;28;20448;-75
2021/10/13 02:35:28;;;;;;;8.97;6.87;;;7.40;1.00;9.00;101037.00;;;;5049798;28;20518;-74
2021/10/13 02:37:56;;;;;;;8.90;6.23;;;7.40;1.00;9.10;101056.00;;;;5050862;28;20472;-75
2021/10/13 02:40:25;;;;;;;10.80;7.13;;;7.50;1.00;9.10;101059.00;;;;5051123;28;21375;-75
2021/10/13 02:42:53;;;;;;;12.50;6.97;;;7.50;1.00;9.10;101043.00;;;;5056676;28;20480;-74
2021/10/13 02:45:22;;;;;;;10.17;6.70;;;7.60;1.00;9.20;101034.00;;;;5054217;28;20466;-76
2021/10/13 02:47:59;;;;;;;9.40;7.00;;;7.60;1.00;9.20;101057.00;;;;5055167;28;20491;-76
2021/10/13 02:50:38;;;;;;;9.53;6.57;;;7.70;1.00;9.20;101069.00;;;;5052428;28;20466;-74
2021/10/13 02:53:17;;;;;;;17.83;7.83;;;7.70;1.00;9.20;101040.00;;;;5047167;28;20515;-76
2021/10/13 02:55:53;;;;;;;11.70;6.83;;;7.70;1.00;9.20;101065.00;;;;5046895;28;20983;-73
2021/10/13 02:58:28;;;;;;;11.77;5.90;;;7.70;1.00;9.20;101057.00;;;;5049052;28;20518;-74
2021/10/13 03:00:58;;;;;;;8.20;6.80;;;7.60;1.00;9.20;101069.00;;;;5048920;28;20472;-76
2021/10/13 03:03:35;;;;;;;11.80;7.57;;;7.60;1.00;9.20;101054.00;;;;5060992;28;20496;-76
2021/10/13 03:06:06;;;;;;;10.60;7.27;;;7.60;1.00;9.20;101056.00;;;;5049309;28;20451;-75
2021/10/13 03:08:37;;;;;;;9.73;6.37;;;7.70;1.00;9.20;101064.00;;;;5048650;28;20490;-77
2021/10/13 03:11:06;;;;;;;11.23;7.07;;;7.70;1.00;9.30;101060.00;;;;5050240;28;20443;-76
2021/10/13 03:13:38;;;;;;;8.70;6.43;;;7.70;1.00;9.30;101053.00;;;;5046950;28;20471;-74
2021/10/13 03:16:10;;;;;;;8.70;6.00;;;7.70;1.00;9.30;101049.00;;;;5046680;28;20440;-75
2021/10/13 03:18:42;;;;;;;8.93;6.53;;;7.70;1.00;9.30;101082.00;;;;5046039;28;20584;-75
2021/10/13 03:21:11;;;;;;;10.17;7.33;;;7.70;1.00;9.30;101078.00;;;;5044983;28;20553;-78
2021/10/13 03:23:40;;;;;;;11.10;7.33;;;7.70;1.00;9.30;101085.00;;;;5047022;28;20451;-76
2021/10/13 03:26:14;;;;;;;7.20;5.90;;;7.70;1.00;9.30;101088.00;;;;5047324;28;20455;-75
2021/10/13 03:28:43;;;;;;;11.17;7.17;;;7.80;1.00;9.30;101081.00;;;;5047449;28;20483;-76
2021/10/13 03:31:12;;;;;;;8.10;6.10;;;7.70;1.00;9.40;101081.00;;;;5047076;28;20443;-75
2021/10/13 03:33:48;;;;;;;9.83;6.97;;;7.80;1.00;9.20;101086.00;;;;5045715;28;20547;-77
2021/10/13 03:36:17;;;;;;;14.80;8.17;;;7.80;1.00;9.40;100980.00;;;;5048684;28;20444;-76
2021/10/13 03:38:46;;;;;;;10.07;7.30;;;7.80;1.00;9.40;101102.00;;;;5047035;28;21046;-73
2021/10/13 03:41:14;;;;;;;11.10;7.30;;;7.80;1.00;9.40;101099.00;;;;5044487;28;20456;-75
2021/10/13 03:43:50;;;;;;;10.73;7.40;;;7.80;1.00;9.40;101103.00;;;;5047121;28;20455;-75
2021/10/13 03:46:19;;;;;;;10.90;7.10;;;7.80;1.00;9.40;101100.00;;;;5046501;28;20463;-76
2021/10/13 03:48:51;;;;;;;13.27;7.60;;;7.80;1.00;9.40;101105.00;;;;5044579;28;20562;-75
2021/10/13 03:51:20;;;;;;;12.70;8.23;;;7.90;1.00;9.40;101121.00;;;;5046060;28;20452;-75
2021/10/13 03:53:49;;;;;;;9.70;7.50;;;7.80;1.00;9.40;101120.00;;;;5053119;28;20476;-77
2021/10/13 03:56:18;;;;;;;16.03;7.20;;;7.80;1.00;9.40;101102.00;;;;5069414;28;20500;-77
2021/10/13 03:58:46;;;;;;;7.80;6.70;;;7.80;1.00;9.30;101125.00;;;;5063152;28;20508;-74
2021/10/13 04:01:15;;;;;;;8.90;6.80;;;7.70;1.00;9.30;101131.00;;;;5050575;28;20463;-75
2021/10/13 04:03:44;;;;;;;10.40;7.10;;;7.80;1.00;9.30;101134.00;;;;5056716;28;20475;-74
2021/10/13 04:06:14;;;;;;;10.70;7.50;;;7.80;1.00;9.30;101148.00;;;;5052340;28;20452;-74
2021/10/13 04:08:42;;;;;;;10.50;7.17;;;7.80;1.00;9.40;101122.00;;;;5043009;28;20483;-75
2021/10/13 04:11:10;;;;;;;11.37;8.00;;;7.80;1.00;9.40;101134.00;;;;5048284;28;20514;-76
2021/10/13 04:13:39;;;;;;;9.60;6.93;;;7.80;1.00;9.40;101138.00;;;;5045796;28;20503;-74
2021/10/13 04:16:08;;;;;;;9.50;7.33;;;7.90;1.00;9.40;101148.00;;;;5047731;28;20452;-74
2021/10/13 04:18:36;;;;;;;12.50;7.13;;;7.90;1.00;9.50;101135.00;;;;5045184;28;21046;-75
2021/10/13 04:21:04;;;;;;;10.40;8.30;;;7.90;1.00;9.50;101129.00;;;;5045960;28;20456;-75
2021/10/13 04:23:35;;;;;;;10.30;8.30;;;7.90;1.00;9.50;101131.00;;;;5042033;28;20459;-75
2021/10/13 04:26:03;;;;;;;8.70;7.67;;;7.90;1.00;9.60;101146.00;;;;5044115;28;20460;-74
2021/10/13 04:28:31;;;;;;;10.57;8.10;;;7.90;1.00;9.60;101162.00;;;;5044605;28;20482;-75
2021/10/13 04:30:59;;;;;;;12.07;7.87;;;8.00;1.00;9.60;101154.00;;;;5045956;28;20539;-77
2021/10/13 04:33:28;;;;;;;12.93;8.20;;;8.00;1.00;9.60;101134.00;;;;5045142;28;20455;-77
2021/10/13 04:35:56;;;;;;;13.50;8.90;;;8.00;1.00;9.60;101152.00;;;;5044764;28;20459;-77
2021/10/13 04:38:24;;;;;;;11.00;8.93;;;8.00;1.00;9.60;101163.00;;;;5044718;28;20585;-76
2021/10/13 04:40:54;;;;;;;11.03;9.33;;;8.00;1.00;9.60;101155.00;;;;5037059;28;20460;-73
2021/10/13 04:43:22;;;;;;;12.00;9.03;;;7.90;1.00;9.50;101146.00;;;;5045241;28;20967;-77
2021/10/13 04:45:50;;;;;;;9.30;8.23;;;7.90;1.00;9.60;101161.00;;;;5041793;28;20874;-74
2021/10/13 04:48:19;;;;;;;12.10;8.70;;;8.00;1.00;9.50;101162.00;;;;5043170;28;20490;-75
2021/10/13 04:50:47;;;;;;;13.00;9.27;;;8.00;1.00;9.60;101154.00;;;;5042873;28;20471;-74
2021/10/13 04:53:16;;;;;;;12.87;9.77;;;8.00;1.00;9.60;101133.00;;;;5041834;28;20952;-77
2021/10/13 04:55:44;;;;;;;15.80;9.47;;;8.00;1.00;9.50;101153.00;;;;5042601;28;20460;-75
2021/10/13 04:58:14;;;;;;;15.00;8.90;;;8.00;1.00;9.60;101160.00;;;;5037467;28;21051;-74
2021/10/13 05:00:42;;;;;;;12.67;9.67;;;8.00;1.00;9.60;101164.00;;;;5041464;28;20748;-74
2021/10/13 05:03:11;;;;;;;16.60;10.97;;;8.00;1.00;9.50;101172.00;;;;5043298;28;20539;-76
2021/10/13 05:05:40;;;;;;;13.50;9.73;;;8.00;1.00;9.50;101177.00;;;;5043240;28;20459;-75
2021/10/13 05:08:08;;;;;;;15.00;10.90;;;8.00;1.00;9.60;101179.00;;;;5042839;28;20484;-74
2021/10/13 05:10:38;;;;;;;16.53;9.63;;;8.00;1.00;9.60;101168.00;;;;5045558;28;20483;-76
2021/10/13 05:13:06;;;;;;;12.77;9.90;;;8.00;1.00;9.60;101176.00;;;;5042494;28;20454;-78
2021/10/13 05:15:37;;;;;;;15.10;10.10;;;8.10;1.00;9.70;101173.00;;;;5044789;28;20513;-75
2021/10/13 05:18:05;;;;;;;12.37;9.40;;;8.20;1.00;9.70;101183.00;;;;5044369;28;20510;-75
2021/10/13 05:20:34;;;;;;;14.40;10.00;;;8.20;1.00;9.70;101174.00;;;;5044786;28;20471;-75
2021/10/13 05:23:02;;;;;;;16.30;11.67;;;8.20;1.00;9.70;101143.00;;;;5043358;28;20460;-75
2021/10/13 05:25:30;;;;;;;14.20;10.40;;;8.20;1.00;9.70;101129.00;;;;5042672;28;20483;-75
2021/10/13 05:27:59;;;;;;;13.20;10.73;;;8.10;1.00;9.70;101184.00;;;;5043156;28;20892;-76
2021/10/13 05:30:27;;;;;;;15.27;9.70;;;8.10;1.00;9.70;101197.00;;;;5045069;28;20990;-77
2021/10/13 05:32:57;;;;;;;13.50;9.63;;;8.10;1.00;9.60;101213.00;;;;5045571;28;20470;-74
2021/10/13 05:35:26;;;;;;;11.90;9.13;;;8.20;1.00;9.50;101199.00;;;;5043696;28;20535;-77
2021/10/13 05:37:54;;;;;;;13.27;8.73;;;8.10;1.00;9.60;101209.00;;;;5042365;28;20471;-74
2021/10/13 05:40:22;;;;;;;13.50;10.60;;;8.10;1.00;9.60;101208.00;;;;5043994;28;20459;-76
2021/10/13 05:42:51;;;;;;;16.60;10.67;;;8.20;1.00;9.70;101207.00;;;;5041225;28;21055;-75
2021/10/13 05:45:19;;;;;;;11.90;9.80;;;8.20;1.00;9.70;101216.00;;;;5044409;28;20471;-76
2021/10/13 05:47:48;;;;;;;19.27;11.63;;;8.20;1.00;9.70;101221.00;;;;5040940;28;20575;-77
2021/10/13 05:50:17;;;;;;;15.97;12.63;;;8.30;1.00;9.70;101216.00;;;;5045763;28;20456;-76
2021/10/13 05:52:46;;;;;;;19.40;14.70;;;8.20;1.00;9.70;101220.00;;;;5044935;28;20529;-78
2021/10/13 05:55:33;;;;;;;22.27;15.30;;;8.20;1.00;9.70;101224.00;;;;5041222;28;20540;-76
2021/10/13 05:58:03;;;;;;;25.43;16.93;;;8.20;1.00;9.60;101202.00;;;;5040388;28;20483;-75
2021/10/13 06:00:32;;;;;;;25.93;17.03;;;8.20;1.00;9.60;101209.00;;;;5045622;28;20554;-78
2021/10/13 06:03:00;;;;;;;25.13;16.57;;;8.20;1.00;9.60;101211.00;;;;5044970;28;20471;-76
2021/10/13 06:05:30;;;;;;;25.30;17.10;;;8.20;1.00;9.60;101213.00;;;;5049959;28;21401;-77
2021/10/13 06:07:58;;;;;;;22.13;16.33;;;8.30;1.00;9.60;101222.00;;;;5048824;28;20545;-77
2021/10/13 06:10:27;;;;;;;25.93;17.37;;;8.30;1.00;9.70;101216.00;;;;5045012;28;20988;-75
2021/10/13 06:12:55;;;;;;;23.53;15.30;;;8.40;1.00;9.80;101220.00;;;;5048812;28;20490;-75
2021/10/13 06:15:26;;;;;;;20.07;12.97;;;8.50;1.00;9.90;101236.00;;;;5048419;28;20456;-76
2021/10/13 06:17:55;;;;;;;20.63;15.00;;;8.70;1.00;10.00;101224.00;;;;5051247;28;20578;-77
2021/10/13 06:20:23;;;;;;;23.80;15.30;;;8.80;1.00;10.10;101220.00;;;;5040631;28;20457;-76
2021/10/13 06:22:53;;;;;;;18.07;15.37;;;8.80;1.00;10.10;101059.00;;;;5047379;28;20509;-76
2021/10/13 06:25:26;;;;;;;19.33;15.13;;;8.80;1.00;10.20;101226.00;;;;5063605;28;20447;-75
2021/10/13 06:27:55;;;;;;;21.03;15.47;;;8.80;1.00;10.10;101190.00;;;;5048655;28;20479;-78
2021/10/13 06:30:23;;;;;;;20.03;13.93;;;8.80;1.00;10.10;101244.00;;;;5050032;28;20466;-76
2021/10/13 06:32:51;;;;;;;21.37;14.63;;;8.80;1.00;10.10;101253.00;;;;5046591;28;20985;-77
2021/10/13 06:35:20;;;;;;;19.30;14.47;;;8.80;1.00;10.20;101238.00;;;;5044177;28;20474;-76
2021/10/13 06:37:49;;;;;;;20.27;14.33;;;8.90;1.00;10.20;101232.00;;;;5045215;28;20486;-74
2021/10/13 06:40:19;;;;;;;21.03;17.17;;;8.90;1.00;10.20;101241.00;;;;5050291;28;20518;-74
2021/10/13 06:42:47;;;;;;;25.17;17.67;;;8.90;1.00;10.30;101242.00;;;;5048579;28;20893;-75
2021/10/13 06:45:16;;;;;;;22.47;16.80;;;9.00;1.00;10.40;101237.00;;;;5046993;28;20467;-75
2021/10/13 06:47:44;;;;;;;21.93;15.87;;;9.10;1.00;10.50;101241.00;;;;5046139;28;20480;-76
2021/10/13 06:50:12;;;;;;;24.63;17.90;;;9.10;1.00;10.60;101240.00;;;;5064089;28;20468;-75
2021/10/13 06:52:41;;;;;;;23.77;17.83;;;9.20;1.00;10.60;101246.00;;;;5043012;28;20448;-74
2021/10/13 06:55:10;;;;;;;28.20;20.10;;;9.20;1.00;10.80;101250.00;;;;5042234;28;20471;-75
2021/10/13 06:57:40;;;;;;;25.43;19.30;;;9.40;1.00;11.00;101254.00;;;;5049406;28;20467;-75
2021/10/13 07:00:10;;;;;;;28.73;20.30;;;9.50;1.00;11.00;101262.00;;;;5046846;28;20483;-76
2021/10/13 07:02:39;;;;;;;30.83;22.33;;;9.60;1.00;11.00;101269.00;;;;5044418;28;20578;-75
2021/10/13 07:05:08;;;;;;;28.33;20.60;;;9.60;1.00;11.00;101274.00;;;;5045275;28;20452;-75
2021/10/13 07:07:43;;;;;;;31.47;21.10;;;9.70;1.00;11.00;101279.00;;;;5047776;28;20698;-77
2021/10/13 07:10:12;;;;;;;29.00;20.60;;;9.70;1.00;11.00;101253.00;;;;5050027;28;20475;-75
2021/10/13 07:12:44;;;;;;;29.60;20.93;;;9.70;1.00;11.00;101302.00;;;;5050173;28;20464;-76
2021/10/13 07:15:13;;;;;;;32.10;20.60;;;9.70;1.00;11.00;101246.00;;;;5051644;28;20459;-77
2021/10/13 07:17:42;;;;;;;27.37;21.57;;;9.80;1.00;11.00;101250.00;;;;5050982;28;20484;-75
2021/10/13 07:20:11;;;;;;;27.80;20.13;;;9.80;1.00;11.00;101223.00;;;;5049172;28;20448;-75
2021/10/13 07:22:40;;;;;;;27.37;19.70;;;9.80;1.00;11.20;101269.00;;;;5046942;28;20463;-77
2021/10/13 07:25:10;;;;;;;30.97;22.50;;;9.90;1.00;11.30;101291.00;;;;5052177;28;20456;-76
2021/10/13 07:27:38;;;;;;;26.00;20.30;;;10.00;1.00;11.50;101292.00;;;;5048007;28;20724;-76
2021/10/13 07:30:13;;;;;;;26.77;21.00;;;10.10;1.00;11.60;101283.00;;;;5048297;28;20485;-77
2021/10/13 07:32:41;;;;;;;27.60;20.83;;;10.20;1.00;11.60;101292.00;;;;5053006;28;20463;-78
2021/10/13 07:35:27;;;;;;;32.43;21.00;;;10.20;1.00;11.60;101286.00;;;;5053171;28;20471;-76
2021/10/13 07:37:57;;;;;;;26.07;21.27;;;10.10;1.00;11.60;101300.00;;;;5048454;28;20475;-75
2021/10/13 07:40:26;;;;;;;25.37;21.07;;;10.10;1.00;11.50;101213.00;;;;5050104;28;20961;-77
2021/10/13 07:42:55;;;;;;;29.17;21.00;;;10.20;1.00;11.50;101289.00;;;;5047655;28;20518;-76
2021/10/13 07:45:25;;;;;;;26.00;18.90;;;10.10;1.00;11.60;101296.00;;;;5050475;28;20467;-75
2021/10/13 07:47:53;;;;;;;28.97;21.63;;;10.20;1.00;11.90;101311.00;;;;5046882;28;20475;-76
2021/10/13 07:50:22;;;;;;;24.00;19.33;;;10.40;1.00;12.30;101295.00;;;;5048306;28;20478;-74
2021/10/13 07:52:50;;;;;;;19.53;17.00;;;10.90;1.00;12.60;101294.00;;;;5042847;28;20966;-78
2021/10/13 07:55:18;;;;;;;22.03;17.73;;;11.20;1.00;13.00;101289.00;;;;5043363;28;20460;-76
2021/10/13 07:57:47;;;;;;;26.57;18.10;;;11.50;1.00;13.10;101298.00;;;;5046913;28;20508;-77
2021/10/13 08:00:19;;;;;;;21.70;16.13;;;11.60;1.00;13.10;101302.00;;;;5047972;28;20479;-76
2021/10/13 08:02:51;;;;;;;18.93;16.80;;;11.60;1.00;13.20;101299.00;;;;5044627;28;20451;-76
2021/10/13 08:05:20;;;;;;;19.47;16.30;;;11.60;1.00;13.30;101315.00;;;;5046957;28;20460;-75
2021/10/13 08:07:48;;;;;;;18.87;16.90;;;11.70;1.00;13.50;101306.00;;;;5047471;28;20478;-74
2021/10/13 08:10:16;;;;;;;22.00;17.50;;;11.80;1.00;13.60;101313.00;;;;5047106;28;21027;-77
2021/10/13 08:12:45;;;;;;;19.97;17.23;;;11.90;1.00;13.50;101327.00;;;;5047532;28;20461;-76
2021/10/13 08:15:16;;;;;;;21.17;16.60;;;11.90;1.00;13.40;101315.00;;;;5047673;28;21103;-76
2021/10/13 08:17:44;;;;;;;21.93;16.47;;;11.90;1.00;13.30;101328.00;;;;5046398;28;20479;-76
2021/10/13 08:20:14;;;;;;;20.03;17.70;;;11.80;1.00;13.40;101337.00;;;;5048186;28;20459;-78
2021/10/13 08:22:46;;;;;;;20.60;17.40;;;11.80;1.00;13.60;101347.00;;;;5047392;28;21017;-78
2021/10/13 08:25:14;;;;;;;21.90;16.77;;;11.90;1.00;13.70;101344.00;;;;5048464;28;20448;-76
2021/10/13 08:27:43;;;;;;;19.70;16.00;;;12.10;1.00;13.80;101323.00;;;;5046227;28;21034;-79
2021/10/13 08:30:12;;;;;;;18.90;16.43;;;12.20;1.00;13.80;101339.00;;;;5049207;28;20495;-79
2021/10/13 08:32:40;;;;;;;17.30;15.23;;;12.20;1.00;13.80;101327.00;;;;5049129;28;20970;-76
2021/10/13 08:35:12;;;;;;;19.63;15.30;;;12.20;1.00;13.60;101343.00;;;;5040920;28;20462;-76
2021/10/13 08:37:42;;;;;;;20.70;16.30;;;12.10;1.00;13.50;101222.00;;;;5045885;28;20492;-75
2021/10/13 08:40:12;;;;;;;20.73;15.07;;;12.00;1.00;13.60;101341.00;;;;5046657;28;20494;-77
2021/10/13 08:42:53;;;;;;;20.07;14.73;;;12.00;1.00;13.60;101337.00;;;;5045967;28;20486;-75
2021/10/13 08:45:24;;;;;;;16.77;14.07;;;12.00;1.00;13.80;101336.00;;;;5050433;28;20442;-79
2021/10/13 08:47:52;;;;;;;19.13;13.80;;;12.20;1.00;13.90;101333.00;;;;5044584;28;20475;-76
2021/10/13 08:50:21;;;;;;;16.90;14.60;;;12.30;1.00;13.90;101332.00;;;;5044602;28;20803;-77
2021/10/13 08:52:52;;;;;;;16.47;12.90;;;12.40;1.00;13.80;101320.00;;;;5048826;28;20797;-77
2021/10/13 08:55:21;;;;;;;17.30;14.03;;;12.30;1.00;13.70;101346.00;;;;5047895;28;20447;-76
2021/10/13 08:58:11;;;;;;;17.97;14.03;;;12.20;1.00;13.60;101350.00;;;;5037740;28;20479;-76
2021/10/13 09:00:42;;;;;;;14.87;13.00;;;12.10;1.00;13.60;101331.00;;;;5047263;28;20466;-79
2021/10/13 09:03:27;;;;;;;13.50;12.13;;;12.10;1.00;13.70;101339.00;;;;5048711;28;20448;-75
2021/10/13 09:05:57;;;;;;;19.33;12.43;;;12.20;1.00;13.80;101333.00;;;;5043863;28;20470;-75
2021/10/13 09:08:28;;;;;;;17.13;13.73;;;12.30;1.00;13.70;101325.00;;;;5047269;28;20475;-75
2021/10/13 09:10:57;;;;;;;17.30;13.27;;;12.40;1.00;13.70;101333.00;;;;5061665;28;20484;-76
2021/10/13 09:13:25;;;;;;;15.10;11.90;;;12.40;1.00;13.60;101338.00;;;;5048546;28;20448;-79
2021/10/13 09:15:57;;;;;;;11.83;9.50;;;12.40;1.00;13.60;101355.00;;;;5047991;28;20550;-76
2021/10/13 09:18:26;;;;;;;16.73;11.90;;;12.40;1.00;13.50;101352.00;;;;5045634;28;20518;-76
2021/10/13 09:20:55;;;;;;;17.87;13.07;;;12.40;1.00;13.30;101347.00;;;;5045279;28;20463;-76
2021/10/13 09:23:29;;;;;;;13.73;11.37;;;12.30;1.00;13.50;101342.00;;;;5049985;28;20448;-76
2021/10/13 09:26:07;;;;;;;18.50;11.90;;;12.40;1.00;13.70;101313.00;;;;5045756;28;20452;-77
2021/10/13 09:28:40;;;;;;;10.37;6.10;;;12.60;1.00;13.90;101343.00;;;;5044712;28;20479;-76
2021/10/13 09:31:15;;;;;;;8.00;5.00;;;12.80;1.00;13.90;101340.00;;;;5046055;28;20482;-76
2021/10/13 09:33:58;;;;;;;4.77;4.00;;;13.00;1.00;14.00;101360.00;;;;5044997;28;20488;-77
2021/10/13 09:36:35;;;;;;;4.97;4.47;;;13.00;1.00;14.10;101329.00;;;;5044811;28;20463;-77
2021/10/13 09:39:14;;;;;;;6.83;4.80;;;12.90;1.00;14.00;101376.00;;;;5050051;28;20512;-80
2021/10/13 09:42:05;;;;;;;6.20;4.73;;;12.70;1.00;13.90;101362.00;;;;5066642;28;20469;-77
2021/10/13 09:44:37;;;;;;;8.97;5.77;;;12.50;1.00;13.80;101348.00;;;;5043101;28;20448;-77
2021/10/13 09:47:08;;;;;;;12.33;6.67;;;12.60;1.00;14.10;101366.00;;;;5044207;28;20479;-76
2021/10/13 09:49:40;;;;;;;8.60;4.60;;;12.70;1.00;14.50;101349.00;;;;5036172;28;20455;-76
2021/10/13 09:52:16;;;;;;;7.70;5.00;;;13.00;1.00;14.70;101352.00;;;;5045573;28;20467;-75
2021/10/13 09:54:48;;;;;;;7.97;5.20;;;13.20;1.00;14.70;101367.00;;;;5043515;28;20495;-76
2021/10/13 09:57:27;;;;;;;8.33;4.93;;;13.20;1.00;14.60;101372.00;;;;5044576;28;20473;-78
2021/10/13 10:00:03;;;;;;;7.73;5.90;;;13.20;1.00;14.50;101358.00;;;;5045865;28;20462;-77
2021/10/13 10:02:34;;;;;;;14.07;5.37;;;13.10;1.00;14.30;101348.00;;;;5044609;28;20450;-75
2021/10/13 10:05:08;;;;;;;9.37;4.30;;;13.10;1.00;14.00;101339.00;;;;5043276;28;20458;-77
2021/10/13 10:07:46;;;;;;;5.10;3.13;;;12.90;1.00;14.00;101351.00;;;;5039260;28;20525;-80
2021/10/13 10:10:20;;;;;;;12.80;5.20;;;12.80;1.00;13.90;101348.00;;;;5052281;28;20481;-79
2021/10/13 10:13:06;;;;;;;9.07;4.23;;;12.70;1.00;14.10;101359.00;;;;5046011;28;20465;-75
2021/10/13 10:15:39;;;;;;;10.50;9.37;;;12.90;1.00;14.80;101339.00;;;;5045513;28;20535;-77
2021/10/13 10:18:31;;;;;;;14.13;9.70;;;13.50;1.00;15.70;101326.00;;;;5055567;28;20513;-79
2021/10/13 10:21:18;;;;;;;18.97;11.13;;;14.20;1.00;16.40;101320.00;;;;5065547;28;20478;-79
2021/10/13 10:23:49;;;;;;;14.37;10.00;;;14.80;1.00;16.30;101355.00;;;;5065110;28;20519;-78
2021/10/13 10:26:33;;;;;;;10.27;8.80;;;14.90;1.00;16.50;101356.00;;;;5071485;28;20554;-79
2021/10/13 10:29:14;;;;;;;11.67;9.70;;;15.10;1.00;16.30;101350.00;;;;5055202;28;20451;-75
2021/10/13 10:31:45;;;;;;;19.60;13.30;;;14.90;1.00;16.20;101339.00;;;;5049288;28;20542;-78
2021/10/13 10:34:17;;;;;;;16.10;11.40;;;14.60;1.00;16.00;101355.00;;;;5050055;28;20470;-77
2021/10/13 10:37:16;;;;;;;12.07;7.97;;;14.60;1.00;16.40;101342.00;;;;5045119;28;20452;-77
2021/10/13 10:40:04;;;;;;;14.60;10.33;;;14.80;1.00;16.70;101339.00;;;;5042837;28;20478;-80
2021/10/13 10:42:59;;;;;;;12.87;8.70;;;15.00;1.00;16.60;101333.00;;;;5043242;28;20468;-78
2021/10/13 10:45:48;;;;;;;11.50;8.53;;;14.90;1.00;16.00;101374.00;;;;5044756;28;20470;-79
2021/10/13 10:48:18;;;;;;;11.10;7.10;;;14.70;1.00;16.00;101339.00;;;;5044849;28;20570;-78
2021/10/13 10:50:58;;;;;;;8.50;7.10;;;14.60;1.00;15.90;101323.00;;;;5046300;28;20537;-77
2021/10/13 10:53:34;;;;;;;9.10;7.17;;;14.40;1.00;16.10;101330.00;;;;5049116;28;20817;-79
2021/10/13 10:56:29;;;;;;;9.37;6.47;;;14.50;1.00;16.30;101339.00;;;;5050713;28;20524;-81
2021/10/13 10:59:05;;;;;;;8.00;5.83;;;14.60;1.00;16.50;101350.00;;;;5049867;28;20582;-78
2021/10/13 11:01:34;;;;;;;8.07;6.07;;;14.70;1.00;16.70;101321.00;;;;5049422;28;20528;-76
2021/10/13 11:04:09;;;;;;;19.87;7.53;;;14.90;1.00;17.00;101350.00;;;;5048728;28;21016;-80
2021/10/13 11:06:42;;;;;;;8.50;6.30;;;15.10;1.00;17.00;101350.00;;;;5048475;28;20451;-76
2021/10/13 11:09:12;;;;;;;6.40;4.90;;;15.20;1.00;17.10;101363.00;;;;5042231;28;20961;-78
2021/10/13 11:11:42;;;;;;;7.23;4.10;;;15.20;1.00;17.00;101356.00;;;;5050832;28;21030;-77
2021/10/13 11:14:15;;;;;;;7.93;4.20;;;15.20;1.00;16.90;101344.00;;;;5049027;28;20443;-77